Terminal Aerodrome Forecast
Issued by NWS

Home | Current Version | Previous Version | Text Only | Print | Product List | Glossary Off
Versions: 1 2 3 4 5 6 7 8 9 10 11 12 13 14 15 16 17 18 19 20 21 22 23 24 25 26 27 28 29 30 31 32 33 34 35 36 37 38

000
FTUS43 KGRB 270520
TAFATW
TAF
KATW 270520Z 2706/2806 32003KT 6SM BR OVC005
      TEMPO 2706/2708 3SM -DZ BR SCT005 OVC024
     FM271200 35003KT 5SM BR OVC006
     FM271700 02005KT 6SM BR OVC010
     FM272300 03005KT P6SM OVC015=

USA.gov is the U.S. government's official web portal to all federal, state and local government web resources and services.